sensor_id;sensor_type;location;lat;lon;timestamp;temperature;humidity
18454;DHT22;9356;52.202;20.950;2023-07-28T00:01:01;18.80;80.70
18454;DHT22;9356;52.202;20.950;2023-07-28T00:02:06;18.10;80.00
18454;DHT22;9356;52.202;20.950;2023-07-28T00:04:21;18.10;80.00
18454;DHT22;9356;52.202;20.950;2023-07-28T00:05:27;18.00;80.10
18454;DHT22;9356;52.202;20.950;2023-07-28T00:06:35;18.10;80.40
18454;DHT22;9356;52.202;20.950;2023-07-28T00:07:39;18.10;80.10
18454;DHT22;9356;52.202;20.950;2023-07-28T00:08:46;18.10;80.30
18454;DHT22;9356;52.202;20.950;2023-07-28T00:10:00;18.10;80.50
18454;DHT22;9356;52.202;20.950;2023-07-28T00:11:08;18.10;80.30
18454;DHT22;9356;52.202;20.950;2023-07-28T00:12:11;18.20;80.90
18454;DHT22;9356;52.202;20.950;2023-07-28T00:13:25;19.70;81.40
18454;DHT22;9356;52.202;20.950;2023-07-28T00:15:38;18.20;80.10
18454;DHT22;9356;52.202;20.950;2023-07-28T00:16:46;18.20;80.00
18454;DHT22;9356;52.202;20.950;2023-07-28T00:17:51;18.20;79.60
18454;DHT22;9356;52.202;20.950;2023-07-28T00:20:08;15.40;78.00
18454;DHT22;9356;52.202;20.950;2023-07-28T00:21:11;17.60;80.70
18454;DHT22;9356;52.202;20.950;2023-07-28T00:22:15;18.20;80.40
18454;DHT22;9356;52.202;20.950;2023-07-28T00:23:19;18.10;80.80
18454;DHT22;9356;52.202;20.950;2023-07-28T00:24:22;18.10;80.90
18454;DHT22;9356;52.202;20.950;2023-07-28T00:25:27;18.10;80.50
18454;DHT22;9356;52.202;20.950;2023-07-28T00:26:33;18.00;80.60
18454;DHT22;9356;52.202;20.950;2023-07-28T00:28:43;18.00;80.70
18454;DHT22;9356;52.202;20.950;2023-07-28T00:29:51;20.50;82.60
18454;DHT22;9356;52.202;20.950;2023-07-28T00:31:00;17.20;81.20
18454;DHT22;9356;52.202;20.950;2023-07-28T00:32:07;18.00;81.30
18454;DHT22;9356;52.202;20.950;2023-07-28T00:33:17;18.00;81.00
18454;DHT22;9356;52.202;20.950;2023-07-28T00:34:22;18.00;81.80
18454;DHT22;9356;52.202;20.950;2023-07-28T00:35:26;18.00;82.20
18454;DHT22;9356;52.202;20.950;2023-07-28T00:36:33;18.10;82.50
18454;DHT22;9356;52.202;20.950;2023-07-28T00:37:39;18.10;81.90
18454;DHT22;9356;52.202;20.950;2023-07-28T00:38:44;18.10;81.60
18454;DHT22;9356;52.202;20.950;2023-07-28T00:39:47;18.10;81.40
18454;DHT22;9356;52.202;20.950;2023-07-28T00:40:52;20.10;83.40
18454;DHT22;9356;52.202;20.950;2023-07-28T00:41:55;18.10;81.50
18454;DHT22;9356;52.202;20.950;2023-07-28T00:44:13;18.20;81.60
18454;DHT22;9356;52.202;20.950;2023-07-28T00:45:24;18.20;82.10
18454;DHT22;9356;52.202;20.950;2023-07-28T00:46:28;18.20;81.50
18454;DHT22;9356;52.202;20.950;2023-07-28T00:47:39;18.20;81.70
18454;DHT22;9356;52.202;20.950;2023-07-28T00:48:43;18.20;81.70
18454;DHT22;9356;52.202;20.950;2023-07-28T00:52:03;18.20;81.70
18454;DHT22;9356;52.202;20.950;2023-07-28T00:53:09;18.20;81.90
18454;DHT22;9356;52.202;20.950;2023-07-28T00:54:17;18.20;82.60
18454;DHT22;9356;52.202;20.950;2023-07-28T00:55:23;18.20;82.30
18454;DHT22;9356;52.202;20.950;2023-07-28T00:56:27;18.20;82.80
18454;DHT22;9356;52.202;20.950;2023-07-28T00:57:40;18.30;82.00
18454;DHT22;9356;52.202;20.950;2023-07-28T00:58:45;18.20;81.90
18454;DHT22;9356;52.202;20.950;2023-07-28T00:59:51;18.20;81.70
18454;DHT22;9356;52.202;20.950;2023-07-28T01:01:00;18.30;82.10
18454;DHT22;9356;52.202;20.950;2023-07-28T01:02:04;18.40;83.00
18454;DHT22;9356;52.202;20.950;2023-07-28T01:03:08;18.30;83.00
18454;DHT22;9356;52.202;20.950;2023-07-28T01:04:12;18.40;82.90
18454;DHT22;9356;52.202;20.950;2023-07-28T01:05:24;18.40;82.30
18454;DHT22;9356;52.202;20.950;2023-07-28T01:06:40;21.70;84.10
18454;DHT22;9356;52.202;20.950;2023-07-28T01:07:57;18.40;81.80
18454;DHT22;9356;52.202;20.950;2023-07-28T01:09:18;18.40;81.90
18454;DHT22;9356;52.202;20.950;2023-07-28T01:10:31;18.40;82.20
18454;DHT22;9356;52.202;20.950;2023-07-28T01:11:59;18.40;81.90
18454;DHT22;9356;52.202;20.950;2023-07-28T01:13:07;18.30;81.80
18454;DHT22;9356;52.202;20.950;2023-07-28T01:14:11;18.20;82.00
18454;DHT22;9356;52.202;20.950;2023-07-28T01:15:14;18.20;82.00
18454;DHT22;9356;52.202;20.950;2023-07-28T01:17:32;18.20;82.30
18454;DHT22;9356;52.202;20.950;2023-07-28T01:19:42;18.20;82.40
18454;DHT22;9356;52.202;20.950;2023-07-28T01:20:55;18.10;82.90
18454;DHT22;9356;52.202;20.950;2023-07-28T01:22:25;18.10;82.30
18454;DHT22;9356;52.202;20.950;2023-07-28T01:23:49;18.10;83.00
18454;DHT22;9356;52.202;20.950;2023-07-28T01:25:08;18.10;82.90
18454;DHT22;9356;52.202;20.950;2023-07-28T01:26:30;18.00;83.10
18454;DHT22;9356;52.202;20.950;2023-07-28T01:27:36;18.10;82.90
18454;DHT22;9356;52.202;20.950;2023-07-28T01:31:06;17.90;83.10
18454;DHT22;9356;52.202;20.950;2023-07-28T01:32:12;18.00;83.40
18454;DHT22;9356;52.202;20.950;2023-07-28T01:33:23;18.00;83.30
18454;DHT22;9356;52.202;20.950;2023-07-28T01:34:30;18.00;83.80
18454;DHT22;9356;52.202;20.950;2023-07-28T01:35:38;18.00;83.80
18454;DHT22;9356;52.202;20.950;2023-07-28T01:36:44;18.00;84.00
18454;DHT22;9356;52.202;20.950;2023-07-28T01:37:57;20.20;85.40
18454;DHT22;9356;52.202;20.950;2023-07-28T01:39:00;18.00;83.70
18454;DHT22;9356;52.202;20.950;2023-07-28T01:40:05;18.00;83.70
18454;DHT22;9356;52.202;20.950;2023-07-28T01:41:11;18.20;84.70
18454;DHT22;9356;52.202;20.950;2023-07-28T01:43:20;18.10;83.60
18454;DHT22;9356;52.202;20.950;2023-07-28T01:44:24;18.10;83.80
18454;DHT22;9356;52.202;20.950;2023-07-28T01:45:30;18.10;83.10
18454;DHT22;9356;52.202;20.950;2023-07-28T01:46:38;18.10;83.20
18454;DHT22;9356;52.202;20.950;2023-07-28T01:47:43;18.00;83.00
18454;DHT22;9356;52.202;20.950;2023-07-28T01:48:48;18.00;84.20
18454;DHT22;9356;52.202;20.950;2023-07-28T01:49:51;18.00;83.50
18454;DHT22;9356;52.202;20.950;2023-07-28T01:50:55;18.00;84.10
18454;DHT22;9356;52.202;20.950;2023-07-28T01:51:59;17.90;83.50
18454;DHT22;9356;52.202;20.950;2023-07-28T01:53:03;17.80;84.10
18454;DHT22;9356;52.202;20.950;2023-07-28T01:54:07;18.00;84.50
18454;DHT22;9356;52.202;20.950;2023-07-28T01:55:14;17.90;83.60
18454;DHT22;9356;52.202;20.950;2023-07-28T01:56:25;18.00;83.60
18454;DHT22;9356;52.202;20.950;2023-07-28T01:57:39;16.80;83.30
18454;DHT22;9356;52.202;20.950;2023-07-28T01:58:42;17.90;83.70
18454;DHT22;9356;52.202;20.950;2023-07-28T01:59:46;19.30;85.20
18454;DHT22;9356;52.202;20.950;2023-07-28T02:00:52;17.90;84.80
18454;DHT22;9356;52.202;20.950;2023-07-28T02:01:58;17.90;84.70
18454;DHT22;9356;52.202;20.950;2023-07-28T02:03:03;17.90;84.80
18454;DHT22;9356;52.202;20.950;2023-07-28T02:04:17;17.90;85.00
18454;DHT22;9356;52.202;20.950;2023-07-28T02:05:21;17.90;84.70
18454;DHT22;9356;52.202;20.950;2023-07-28T02:06:28;17.80;84.60
18454;DHT22;9356;52.202;20.950;2023-07-28T02:07:53;17.80;84.70
18454;DHT22;9356;52.202;20.950;2023-07-28T02:09:00;16.00;83.90
18454;DHT22;9356;52.202;20.950;2023-07-28T02:12:22;17.70;84.90
18454;DHT22;9356;52.202;20.950;2023-07-28T02:13:30;17.60;84.90
18454;DHT22;9356;52.202;20.950;2023-07-28T02:14:38;17.70;86.50
18454;DHT22;9356;52.202;20.950;2023-07-28T02:15:45;17.60;86.00
18454;DHT22;9356;52.202;20.950;2023-07-28T02:16:50;17.50;85.60
18454;DHT22;9356;52.202;20.950;2023-07-28T02:18:07;19.90;87.90
18454;DHT22;9356;52.202;20.950;2023-07-28T02:19:15;17.60;86.70
18454;DHT22;9356;52.202;20.950;2023-07-28T02:20:19;17.50;85.80
18454;DHT22;9356;52.202;20.950;2023-07-28T02:21:27;17.50;86.30
18454;DHT22;9356;52.202;20.950;2023-07-28T02:22:44;17.50;86.70
18454;DHT22;9356;52.202;20.950;2023-07-28T02:23:48;17.50;86.90
18454;DHT22;9356;52.202;20.950;2023-07-28T02:25:56;17.50;87.40
18454;DHT22;9356;52.202;20.950;2023-07-28T02:27:00;17.50;87.30
18454;DHT22;9356;52.202;20.950;2023-07-28T02:28:18;17.50;87.60
18454;DHT22;9356;52.202;20.950;2023-07-28T02:29:27;17.50;88.50
18454;DHT22;9356;52.202;20.950;2023-07-28T02:33:31;17.50;88.50
18454;DHT22;9356;52.202;20.950;2023-07-28T02:34:38;16.30;88.40
18454;DHT22;9356;52.202;20.950;2023-07-28T02:35:44;17.50;88.80
18454;DHT22;9356;52.202;20.950;2023-07-28T02:36:50;17.50;89.00
18454;DHT22;9356;52.202;20.950;2023-07-28T02:37:57;17.20;89.30
18454;DHT22;9356;52.202;20.950;2023-07-28T02:39:01;19.60;90.00
18454;DHT22;9356;52.202;20.950;2023-07-28T02:40:09;17.60;89.20
18454;DHT22;9356;52.202;20.950;2023-07-28T02:41:18;17.60;89.30
18454;DHT22;9356;52.202;20.950;2023-07-28T02:42:21;17.70;89.70
18454;DHT22;9356;52.202;20.950;2023-07-28T02:43:26;17.70;89.20
18454;DHT22;9356;52.202;20.950;2023-07-28T02:44:33;17.70;88.90
18454;DHT22;9356;52.202;20.950;2023-07-28T02:45:41;17.70;88.70
18454;DHT22;9356;52.202;20.950;2023-07-28T02:46:50;17.70;89.70
18454;DHT22;9356;52.202;20.950;2023-07-28T02:47:57;17.70;89.90
18454;DHT22;9356;52.202;20.950;2023-07-28T02:49:05;17.70;90.20
18454;DHT22;9356;52.202;20.950;2023-07-28T02:50:18;16.00;89.60
18454;DHT22;9356;52.202;20.950;2023-07-28T02:51:21;17.50;90.10
18454;DHT22;9356;52.202;20.950;2023-07-28T02:52:28;17.50;90.60
18454;DHT22;9356;52.202;20.950;2023-07-28T02:53:42;17.60;91.10
18454;DHT22;9356;52.202;20.950;2023-07-28T02:54:49;17.50;90.80
18454;DHT22;9356;52.202;20.950;2023-07-28T02:56:06;17.50;91.40
18454;DHT22;9356;52.202;20.950;2023-07-28T02:57:10;17.50;91.40
18454;DHT22;9356;52.202;20.950;2023-07-28T02:58:18;17.50;91.50
18454;DHT22;9356;52.202;20.950;2023-07-28T02:59:26;17.40;91.60
18454;DHT22;9356;52.202;20.950;2023-07-28T03:00:41;17.40;91.70
18454;DHT22;9356;52.202;20.950;2023-07-28T03:02:02;17.30;91.80
18454;DHT22;9356;52.202;20.950;2023-07-28T03:03:05;17.30;92.10
18454;DHT22;9356;52.202;20.950;2023-07-28T03:04:18;17.30;92.60
18454;DHT22;9356;52.202;20.950;2023-07-28T03:05:58;17.30;92.60
18454;DHT22;9356;52.202;20.950;2023-07-28T03:07:05;17.30;93.00
18454;DHT22;9356;52.202;20.950;2023-07-28T03:08:13;17.20;93.00
18454;DHT22;9356;52.202;20.950;2023-07-28T03:09:20;17.20;93.00
18454;DHT22;9356;52.202;20.950;2023-07-28T03:10:50;17.20;93.50
18454;DHT22;9356;52.202;20.950;2023-07-28T03:12:01;17.20;93.90
18454;DHT22;9356;52.202;20.950;2023-07-28T03:13:09;17.20;94.10
18454;DHT22;9356;52.202;20.950;2023-07-28T03:14:17;17.40;94.10
18454;DHT22;9356;52.202;20.950;2023-07-28T03:15:22;17.20;93.80
18454;DHT22;9356;52.202;20.950;2023-07-28T03:16:34;17.20;94.20
18454;DHT22;9356;52.202;20.950;2023-07-28T03:17:42;17.20;94.30
18454;DHT22;9356;52.202;20.950;2023-07-28T03:18:56;17.20;93.90
18454;DHT22;9356;52.202;20.950;2023-07-28T03:20:01;17.20;94.30
18454;DHT22;9356;52.202;20.950;2023-07-28T03:21:14;17.20;94.60
18454;DHT22;9356;52.202;20.950;2023-07-28T03:22:17;17.20;94.70
18454;DHT22;9356;52.202;20.950;2023-07-28T03:23:26;17.30;94.90
18454;DHT22;9356;52.202;20.950;2023-07-28T03:24:32;17.40;94.90
18454;DHT22;9356;52.202;20.950;2023-07-28T03:25:36;17.40;94.80
18454;DHT22;9356;52.202;20.950;2023-07-28T03:26:42;17.40;94.80
18454;DHT22;9356;52.202;20.950;2023-07-28T03:27:46;17.40;94.50
18454;DHT22;9356;52.202;20.950;2023-07-28T03:28:54;17.50;94.80
18454;DHT22;9356;52.202;20.950;2023-07-28T03:30:02;14.60;93.90
18454;DHT22;9356;52.202;20.950;2023-07-28T03:31:10;17.40;94.80
18454;DHT22;9356;52.202;20.950;2023-07-28T03:32:20;17.40;94.80
18454;DHT22;9356;52.202;20.950;2023-07-28T03:33:25;16.00;94.40
18454;DHT22;9356;52.202;20.950;2023-07-28T03:34:34;16.40;94.50
18454;DHT22;9356;52.202;20.950;2023-07-28T03:35:50;17.40;94.90
18454;DHT22;9356;52.202;20.950;2023-07-28T03:36:58;17.40;94.70
18454;DHT22;9356;52.202;20.950;2023-07-28T03:38:12;17.50;94.80
18454;DHT22;9356;52.202;20.950;2023-07-28T03:39:21;17.50;94.60
18454;DHT22;9356;52.202;20.950;2023-07-28T03:40:30;17.40;94.20
18454;DHT22;9356;52.202;20.950;2023-07-28T03:41:38;17.50;94.50
18454;DHT22;9356;52.202;20.950;2023-07-28T03:42:52;17.40;94.50
18454;DHT22;9356;52.202;20.950;2023-07-28T03:43:58;17.50;94.80
18454;DHT22;9356;52.202;20.950;2023-07-28T03:45:06;17.50;95.00
18454;DHT22;9356;52.202;20.950;2023-07-28T03:46:18;17.50;94.90
18454;DHT22;9356;52.202;20.950;2023-07-28T03:47:34;13.90;93.70
18454;DHT22;9356;52.202;20.950;2023-07-28T03:48:41;17.50;95.10
18454;DHT22;9356;52.202;20.950;2023-07-28T03:49:46;17.40;95.00
18454;DHT22;9356;52.202;20.950;2023-07-28T03:50:52;17.50;94.90
18454;DHT22;9356;52.202;20.950;2023-07-28T03:51:57;17.40;95.40
18454;DHT22;9356;52.202;20.950;2023-07-28T03:53:01;16.20;94.70
18454;DHT22;9356;52.202;20.950;2023-07-28T03:54:08;17.40;95.30
18454;DHT22;9356;52.202;20.950;2023-07-28T03:55:17;17.30;95.40
18454;DHT22;9356;52.202;20.950;2023-07-28T03:56:25;17.30;95.30
18454;DHT22;9356;52.202;20.950;2023-07-28T03:57:32;17.30;95.10
18454;DHT22;9356;52.202;20.950;2023-07-28T03:58:38;17.30;95.30
18454;DHT22;9356;52.202;20.950;2023-07-28T03:59:41;17.20;95.50
18454;DHT22;9356;52.202;20.950;2023-07-28T04:00:46;17.30;95.80
18454;DHT22;9356;52.202;20.950;2023-07-28T04:01:49;17.30;95.80
18454;DHT22;9356;52.202;20.950;2023-07-28T04:03:01;17.40;96.10
18454;DHT22;9356;52.202;20.950;2023-07-28T04:04:05;17.40;95.80
18454;DHT22;9356;52.202;20.950;2023-07-28T04:05:14;17.40;95.90
18454;DHT22;9356;52.202;20.950;2023-07-28T04:06:17;17.30;95.60
18454;DHT22;9356;52.202;20.950;2023-07-28T04:07:24;17.30;96.00
18454;DHT22;9356;52.202;20.950;2023-07-28T04:08:33;17.30;96.20
18454;DHT22;9356;52.202;20.950;2023-07-28T04:09:41;16.90;95.90
18454;DHT22;9356;52.202;20.950;2023-07-28T04:10:46;17.30;95.90
18454;DHT22;9356;52.202;20.950;2023-07-28T04:11:50;17.30;96.00
18454;DHT22;9356;52.202;20.950;2023-07-28T04:12:58;17.20;96.10
18454;DHT22;9356;52.202;20.950;2023-07-28T04:14:10;17.30;96.20
18454;DHT22;9356;52.202;20.950;2023-07-28T04:15:17;17.20;95.90
18454;DHT22;9356;52.202;20.950;2023-07-28T04:16:26;14.70;95.70
18454;DHT22;9356;52.202;20.950;2023-07-28T04:17:30;17.20;96.70
18454;DHT22;9356;52.202;20.950;2023-07-28T04:18:38;17.20;96.70
18454;DHT22;9356;52.202;20.950;2023-07-28T04:19:41;17.30;96.30
18454;DHT22;9356;52.202;20.950;2023-07-28T04:20:48;17.30;96.60
18454;DHT22;9356;52.202;20.950;2023-07-28T04:21:53;17.30;96.30
18454;DHT22;9356;52.202;20.950;2023-07-28T04:23:02;17.30;96.50
18454;DHT22;9356;52.202;20.950;2023-07-28T04:25:30;17.20;96.80
18454;DHT22;9356;52.202;20.950;2023-07-28T04:26:34;17.20;96.50
18454;DHT22;9356;52.202;20.950;2023-07-28T04:27:42;17.20;96.70
18454;DHT22;9356;52.202;20.950;2023-07-28T04:28:54;17.20;96.70
18454;DHT22;9356;52.202;20.950;2023-07-28T04:30:10;15.30;96.30
18454;DHT22;9356;52.202;20.950;2023-07-28T04:31:17;17.30;96.90
18454;DHT22;9356;52.202;20.950;2023-07-28T04:32:28;14.40;96.20
18454;DHT22;9356;52.202;20.950;2023-07-28T04:33:41;15.50;96.30
18454;DHT22;9356;52.202;20.950;2023-07-28T04:34:45;17.30;96.80
18454;DHT22;9356;52.202;20.950;2023-07-28T04:35:58;17.40;97.00
18454;DHT22;9356;52.202;20.950;2023-07-28T04:37:09;17.40;97.00
18454;DHT22;9356;52.202;20.950;2023-07-28T04:38:22;17.40;96.80
18454;DHT22;9356;52.202;20.950;2023-07-28T04:39:33;17.50;97.00
18454;DHT22;9356;52.202;20.950;2023-07-28T04:40:46;17.50;97.00
18454;DHT22;9356;52.202;20.950;2023-07-28T04:41:58;17.50;97.00
18454;DHT22;9356;52.202;20.950;2023-07-28T04:43:05;17.60;96.90
18454;DHT22;9356;52.202;20.950;2023-07-28T04:44:14;17.70;96.80
18454;DHT22;9356;52.202;20.950;2023-07-28T04:45:28;17.70;96.70
18454;DHT22;9356;52.202;20.950;2023-07-28T04:46:46;17.70;96.30
18454;DHT22;9356;52.202;20.950;2023-07-28T04:47:51;16.60;96.30
18454;DHT22;9356;52.202;20.950;2023-07-28T04:49:13;17.70;96.10
18454;DHT22;9356;52.202;20.950;2023-07-28T04:50:47;17.60;96.80
18454;DHT22;9356;52.202;20.950;2023-07-28T04:51:57;19.10;97.00
18454;DHT22;9356;52.202;20.950;2023-07-28T04:53:18;17.60;96.40
18454;DHT22;9356;52.202;20.950;2023-07-28T04:54:46;17.50;96.50
18454;DHT22;9356;52.202;20.950;2023-07-28T04:55:50;17.50;96.70
18454;DHT22;9356;52.202;20.950;2023-07-28T04:57:01;17.50;96.80
18454;DHT22;9356;52.202;20.950;2023-07-28T04:58:12;17.50;96.90
18454;DHT22;9356;52.202;20.950;2023-07-28T04:59:27;17.50;97.10
18454;DHT22;9356;52.202;20.950;2023-07-28T05:00:34;17.50;97.20
18454;DHT22;9356;52.202;20.950;2023-07-28T05:01:43;17.50;97.00
18454;DHT22;9356;52.202;20.950;2023-07-28T05:02:55;17.50;97.10
18454;DHT22;9356;52.202;20.950;2023-07-28T05:04:10;17.50;96.80
18454;DHT22;9356;52.202;20.950;2023-07-28T05:06:33;17.60;96.70
18454;DHT22;9356;52.202;20.950;2023-07-28T05:07:42;17.60;97.00
18454;DHT22;9356;52.202;20.950;2023-07-28T05:08:54;17.60;97.00
18454;DHT22;9356;52.202;20.950;2023-07-28T05:10:09;17.60;96.90
18454;DHT22;9356;52.202;20.950;2023-07-28T05:11:13;17.60;96.80
18454;DHT22;9356;52.202;20.950;2023-07-28T05:12:16;17.50;96.60
18454;DHT22;9356;52.202;20.950;2023-07-28T05:13:38;17.50;96.90
18454;DHT22;9356;52.202;20.950;2023-07-28T05:14:41;17.50;97.10
18454;DHT22;9356;52.202;20.950;2023-07-28T05:15:58;17.50;97.20
18454;DHT22;9356;52.202;20.950;2023-07-28T05:17:22;17.50;97.30
18454;DHT22;9356;52.202;20.950;2023-07-28T05:20:24;17.60;97.20
18454;DHT22;9356;52.202;20.950;2023-07-28T05:21:42;17.60;97.40
18454;DHT22;9356;52.202;20.950;2023-07-28T05:22:49;17.70;97.00
18454;DHT22;9356;52.202;20.950;2023-07-28T05:23:57;17.70;96.90
18454;DHT22;9356;52.202;20.950;2023-07-28T05:25:10;17.70;96.50
18454;DHT22;9356;52.202;20.950;2023-07-28T05:26:18;17.70;96.90
18454;DHT22;9356;52.202;20.950;2023-07-28T05:27:26;17.70;96.70
18454;DHT22;9356;52.202;20.950;2023-07-28T05:28:38;17.70;96.60
18454;DHT22;9356;52.202;20.950;2023-07-28T05:29:41;17.70;96.50
18454;DHT22;9356;52.202;20.950;2023-07-28T05:30:53;17.80;96.90
18454;DHT22;9356;52.202;20.950;2023-07-28T05:32:03;17.80;96.90
18454;DHT22;9356;52.202;20.950;2023-07-28T05:33:53;18.10;96.80
18454;DHT22;9356;52.202;20.950;2023-07-28T05:35:02;17.90;96.80
18454;DHT22;9356;52.202;20.950;2023-07-28T05:36:08;17.90;96.40
18454;DHT22;9356;52.202;20.950;2023-07-28T05:37:14;18.00;96.50
18454;DHT22;9356;52.202;20.950;2023-07-28T05:38:21;18.00;96.40
18454;DHT22;9356;52.202;20.950;2023-07-28T05:39:26;17.90;96.30
18454;DHT22;9356;52.202;20.950;2023-07-28T05:40:43;17.90;96.40
18454;DHT22;9356;52.202;20.950;2023-07-28T05:41:51;17.80;96.30
18454;DHT22;9356;52.202;20.950;2023-07-28T05:43:10;17.90;96.40
18454;DHT22;9356;52.202;20.950;2023-07-28T05:44:18;17.90;96.40
18454;DHT22;9356;52.202;20.950;2023-07-28T05:45:29;17.90;96.50
18454;DHT22;9356;52.202;20.950;2023-07-28T05:46:34;17.80;96.30
18454;DHT22;9356;52.202;20.950;2023-07-28T05:47:42;17.80;96.40
18454;DHT22;9356;52.202;20.950;2023-07-28T05:48:46;17.90;96.90
18454;DHT22;9356;52.202;20.950;2023-07-28T05:50:03;17.90;97.20
18454;DHT22;9356;52.202;20.950;2023-07-28T05:51:14;18.00;96.40
18454;DHT22;9356;52.202;20.950;2023-07-28T05:52:19;18.00;96.10
18454;DHT22;9356;52.202;20.950;2023-07-28T05:53:30;18.00;96.10
18454;DHT22;9356;52.202;20.950;2023-07-28T05:54:44;18.00;96.10
18454;DHT22;9356;52.202;20.950;2023-07-28T05:55:49;18.00;95.90
18454;DHT22;9356;52.202;20.950;2023-07-28T05:57:00;18.00;96.20
18454;DHT22;9356;52.202;20.950;2023-07-28T05:58:06;17.90;96.00
18454;DHT22;9356;52.202;20.950;2023-07-28T05:59:13;18.00;96.00
18454;DHT22;9356;52.202;20.950;2023-07-28T06:00:18;18.00;96.10
18454;DHT22;9356;52.202;20.950;2023-07-28T06:01:26;17.90;96.30
18454;DHT22;9356;52.202;20.950;2023-07-28T06:02:49;17.90;96.30
18454;DHT22;9356;52.202;20.950;2023-07-28T06:04:22;17.90;96.30
18454;DHT22;9356;52.202;20.950;2023-07-28T06:05:34;17.90;96.40
18454;DHT22;9356;52.202;20.950;2023-07-28T06:06:42;17.90;96.20
18454;DHT22;9356;52.202;20.950;2023-07-28T06:07:49;17.90;96.20
18454;DHT22;9356;52.202;20.950;2023-07-28T06:08:58;18.00;96.40
18454;DHT22;9356;52.202;20.950;2023-07-28T06:10:09;17.90;96.40
18454;DHT22;9356;52.202;20.950;2023-07-28T06:11:18;18.00;96.00
18454;DHT22;9356;52.202;20.950;2023-07-28T06:12:26;18.00;96.00
18454;DHT22;9356;52.202;20.950;2023-07-28T06:13:34;18.00;95.70
18454;DHT22;9356;52.202;20.950;2023-07-28T06:14:41;18.10;96.00
18454;DHT22;9356;52.202;20.950;2023-07-28T06:15:52;18.00;95.40
18454;DHT22;9356;52.202;20.950;2023-07-28T06:16:56;18.10;96.10
18454;DHT22;9356;52.202;20.950;2023-07-28T06:18:08;18.10;95.60
18454;DHT22;9356;52.202;20.950;2023-07-28T06:19:14;18.20;95.70
18454;DHT22;9356;52.202;20.950;2023-07-28T06:20:30;20.60;96.50
18454;DHT22;9356;52.202;20.950;2023-07-28T06:21:42;18.20;95.40
18454;DHT22;9356;52.202;20.950;2023-07-28T06:22:57;18.20;95.40
18454;DHT22;9356;52.202;20.950;2023-07-28T06:24:02;17.60;95.20
18454;DHT22;9356;52.202;20.950;2023-07-28T06:25:08;18.20;95.20
18454;DHT22;9356;52.202;20.950;2023-07-28T06:26:10;18.30;95.20
18454;DHT22;9356;52.202;20.950;2023-07-28T06:27:16;18.30;95.50
18454;DHT22;9356;52.202;20.950;2023-07-28T06:28:22;17.40;95.20
18454;DHT22;9356;52.202;20.950;2023-07-28T06:29:34;17.00;95.30
18454;DHT22;9356;52.202;20.950;2023-07-28T06:30:42;19.90;95.80
18454;DHT22;9356;52.202;20.950;2023-07-28T06:32:06;18.50;95.10
18454;DHT22;9356;52.202;20.950;2023-07-28T06:33:19;18.60;95.20
18454;DHT22;9356;52.202;20.950;2023-07-28T06:34:22;17.40;95.10
18454;DHT22;9356;52.202;20.950;2023-07-28T06:35:34;22.30;96.10
18454;DHT22;9356;52.202;20.950;2023-07-28T06:36:41;18.60;95.00
18454;DHT22;9356;52.202;20.950;2023-07-28T06:37:49;18.60;94.60
18454;DHT22;9356;52.202;20.950;2023-07-28T06:38:57;18.60;94.50
18454;DHT22;9356;52.202;20.950;2023-07-28T06:40:10;18.50;94.50
18454;DHT22;9356;52.202;20.950;2023-07-28T06:41:14;18.60;94.70
18454;DHT22;9356;52.202;20.950;2023-07-28T06:42:26;18.60;94.70
18454;DHT22;9356;52.202;20.950;2023-07-28T06:43:34;21.50;95.80
18454;DHT22;9356;52.202;20.950;2023-07-28T06:44:46;18.60;94.80
18454;DHT22;9356;52.202;20.950;2023-07-28T06:45:57;18.60;94.90
18454;DHT22;9356;52.202;20.950;2023-07-28T06:47:07;18.40;94.60
18454;DHT22;9356;52.202;20.950;2023-07-28T06:48:13;18.60;94.70
18454;DHT22;9356;52.202;20.950;2023-07-28T06:49:26;18.60;94.70
18454;DHT22;9356;52.202;20.950;2023-07-28T06:50:36;18.60;94.80
18454;DHT22;9356;52.202;20.950;2023-07-28T06:51:46;18.60;94.80
18454;DHT22;9356;52.202;20.950;2023-07-28T06:52:58;18.60;94.70
18454;DHT22;9356;52.202;20.950;2023-07-28T06:54:09;18.60;94.90
18454;DHT22;9356;52.202;20.950;2023-07-28T06:55:17;18.60;95.20
18454;DHT22;9356;52.202;20.950;2023-07-28T06:56:27;18.60;95.20
18454;DHT22;9356;52.202;20.950;2023-07-28T06:57:58;18.50;94.90
18454;DHT22;9356;52.202;20.950;2023-07-28T06:59:06;18.40;95.10
18454;DHT22;9356;52.202;20.950;2023-07-28T07:00:22;18.40;95.60
18454;DHT22;9356;52.202;20.950;2023-07-28T07:01:34;18.40;95.90
18454;DHT22;9356;52.202;20.950;2023-07-28T07:02:46;18.30;96.20
18454;DHT22;9356;52.202;20.950;2023-07-28T07:04:02;18.20;96.70
18454;DHT22;9356;52.202;20.950;2023-07-28T07:05:10;18.10;97.10
18454;DHT22;9356;52.202;20.950;2023-07-28T07:06:18;18.00;97.80
18454;DHT22;9356;52.202;20.950;2023-07-28T07:07:34;18.00;98.10
18454;DHT22;9356;52.202;20.950;2023-07-28T07:08:43;18.00;98.30
18454;DHT22;9356;52.202;20.950;2023-07-28T07:09:59;18.00;99.00
18454;DHT22;9356;52.202;20.950;2023-07-28T07:11:14;17.90;99.70
18454;DHT22;9356;52.202;20.950;2023-07-28T07:12:18;15.60;99.30
18454;DHT22;9356;52.202;20.950;2023-07-28T07:13:25;17.80;99.90
18454;DHT22;9356;52.202;20.950;2023-07-28T07:14:30;17.70;99.90
18454;DHT22;9356;52.202;20.950;2023-07-28T07:15:41;17.60;99.90
18454;DHT22;9356;52.202;20.950;2023-07-28T07:16:46;20.60;99.90
18454;DHT22;9356;52.202;20.950;2023-07-28T07:18:09;17.50;99.90
18454;DHT22;9356;52.202;20.950;2023-07-28T07:19:18;17.50;99.90
18454;DHT22;9356;52.202;20.950;2023-07-28T07:20:28;17.60;99.90
18454;DHT22;9356;52.202;20.950;2023-07-28T07:21:38;17.30;99.90
18454;DHT22;9356;52.202;20.950;2023-07-28T07:22:53;17.30;99.90
18454;DHT22;9356;52.202;20.950;2023-07-28T07:24:02;17.30;99.90
18454;DHT22;9356;52.202;20.950;2023-07-28T07:25:10;18.20;99.90
18454;DHT22;9356;52.202;20.950;2023-07-28T07:26:14;17.20;99.90
18454;DHT22;9356;52.202;20.950;2023-07-28T07:27:26;17.20;99.90
18454;DHT22;9356;52.202;20.950;2023-07-28T07:28:37;17.20;99.90
18454;DHT22;9356;52.202;20.950;2023-07-28T07:30:55;17.20;99.90
18454;DHT22;9356;52.202;20.950;2023-07-28T07:32:12;17.20;99.90
18454;DHT22;9356;52.202;20.950;2023-07-28T07:33:18;17.20;99.90
18454;DHT22;9356;52.202;20.950;2023-07-28T07:34:22;17.10;99.90
18454;DHT22;9356;52.202;20.950;2023-07-28T07:35:30;17.10;99.90
18454;DHT22;9356;52.202;20.950;2023-07-28T07:37:58;17.00;99.90
18454;DHT22;9356;52.202;20.950;2023-07-28T07:39:05;17.00;99.90
18454;DHT22;9356;52.202;20.950;2023-07-28T07:40:18;17.10;99.90
18454;DHT22;9356;52.202;20.950;2023-07-28T07:41:25;17.10;99.90
18454;DHT22;9356;52.202;20.950;2023-07-28T07:42:41;17.50;99.90
18454;DHT22;9356;52.202;20.950;2023-07-28T07:43:53;17.10;99.90
18454;DHT22;9356;52.202;20.950;2023-07-28T07:45:06;17.10;99.90